Time;durP1;ratioP1;P1;durP2;ratioP2;P2;SDS_P1;SDS_P2;PMS_P1;PMS_P2;Temp;Humidity;BMP_temperature;BMP_pressure;BME280_temperature;BME280_humidity;BME280_pressure;Samples;Min_cycle;Max_cycle;Signal;HPM_P1;HPM_P2
2021/08/04 03:29:05;;;;;;;0.55;0.55;;;12.60;82.60;;;;;;5859810;24;20090;31
2021/08/04 04:25:21;;;;;;;0.80;0.40;;;12.40;83.00;;;;;;6191971;23;20020;-91
2021/08/04 04:31:21;;;;;;;0.40;0.40;;;12.30;82.80;;;;;;6074451;23;20382;-91
2021/08/04 04:38:49;;;;;;;0.40;0.40;;;12.30;83.00;;;;;;5874277;24;20340;-91
2021/08/04 04:51:44;;;;;;;0.50;0.50;;;12.30;82.70;;;;;;5152421;27;20145;-92
2021/08/04 04:55:19;;;;;;;0.95;0.50;;;12.40;82.70;;;;;;5065426;28;20059;-92
2021/08/04 04:57:28;;;;;;;0.30;0.30;;;12.50;82.70;;;;;;4986355;28;20159;-91
2021/08/04 05:00:12;;;;;;;0.70;0.50;;;12.40;82.60;;;;;;4961630;28;20053;-92
2021/08/04 05:42:56;;;;;;;0.45;0.30;;;13.10;81.70;;;;;;4660624;30;20511;-91
2021/08/04 05:50:00;;;;;;;0.57;0.40;;;13.30;81.70;;;;;;4662216;30;20054;-91
2021/08/04 05:52:39;;;;;;;0.40;0.40;;;13.40;81.70;;;;;;4682051;30;20077;-91
2021/08/04 05:56:23;;;;;;;0.80;0.50;;;13.50;81.60;;;;;;4659271;30;20055;-92
2021/08/04 05:59:35;;;;;;;0.28;0.28;;;13.60;81.60;;;;;;4612002;30;20055;-89
2021/08/04 06:02:37;;;;;;;0.40;0.40;;;13.70;81.50;;;;;;4637802;30;20120;-89
2021/08/04 06:09:25;;;;;;;0.38;0.38;;;14.00;81.30;;;;;;4588947;31;20109;-89
2021/08/04 06:12:09;;;;;;;0.80;0.50;;;14.20;81.20;;;;;;4621578;31;20106;-90
2021/08/04 06:14:37;;;;;;;0.70;0.68;;;14.30;81.10;;;;;;4638414;30;20091;-90
2021/08/04 06:17:03;;;;;;;0.40;0.40;;;14.50;81.00;;;;;;4650639;30;20042;-79
2021/08/04 06:19:28;;;;;;;1.23;0.43;;;14.50;80.90;;;;;;4645638;30;20054;-80
2021/08/04 06:21:54;;;;;;;0.50;0.50;;;14.60;80.80;;;;;;4661605;30;20093;-80
2021/08/04 06:24:20;;;;;;;0.85;0.70;;;14.70;80.80;;;;;;4647319;30;20084;-80
2021/08/04 06:26:46;;;;;;;0.60;0.60;;;14.80;80.70;;;;;;4680503;30;20421;-80
2021/08/04 06:29:12;;;;;;;0.32;0.32;;;14.90;80.70;;;;;;4712675;30;20041;-81
2021/08/04 06:31:37;;;;;;;0.60;0.50;;;15.00;80.60;;;;;;4718897;30;20051;-79
2021/08/04 06:34:03;;;;;;;0.43;0.43;;;15.00;80.50;;;;;;4731106;29;20050;-80
2021/08/04 06:36:29;;;;;;;0.50;0.50;;;15.10;80.50;;;;;;4789636;29;20540;-80
2021/08/04 06:38:55;;;;;;;1.35;0.85;;;15.20;80.50;;;;;;4869004;29;20035;-79
2021/08/04 06:41:21;;;;;;;0.57;0.57;;;15.30;80.50;;;;;;4918927;29;20045;-79
2021/08/04 06:43:47;;;;;;;0.70;0.57;;;15.40;80.40;;;;;;4950026;29;20141;-77
2021/08/04 06:46:13;;;;;;;0.50;0.50;;;15.50;80.40;;;;;;4997997;28;20038;-81
2021/08/04 06:48:39;;;;;;;1.17;0.77;;;15.50;80.40;;;;;;5001364;28;20103;-81
2021/08/04 06:51:08;;;;;;;0.40;0.40;;;15.50;80.50;;;;;;5039039;28;20106;-80
2021/08/04 06:53:34;;;;;;;0.50;0.50;;;15.60;80.50;;;;;;5043321;28;20036;-81
2021/08/04 06:55:59;;;;;;;1.10;0.60;;;15.60;80.40;;;;;;5057219;28;20059;-80
2021/08/04 06:58:25;;;;;;;0.70;0.65;;;15.70;80.40;;;;;;5077621;28;20060;-80
2021/08/04 07:00:51;;;;;;;0.52;0.45;;;15.80;80.40;;;;;;5056341;28;20494;-80
2021/08/04 07:03:16;;;;;;;0.55;0.55;;;15.90;80.40;;;;;;5041565;28;20513;-79
2021/08/04 07:05:42;;;;;;;0.30;0.30;;;15.90;80.30;;;;;;5073187;28;20128;-80
2021/08/04 07:08:10;;;;;;;0.55;0.45;;;16.00;80.30;;;;;;5043092;28;20078;-80
2021/08/04 07:10:36;;;;;;;0.65;0.40;;;16.10;80.30;;;;;;5054822;28;20041;-83
2021/08/04 07:13:02;;;;;;;0.85;0.40;;;16.10;80.30;;;;;;5082444;28;20040;-81
2021/08/04 07:15:27;;;;;;;1.40;0.60;;;16.10;80.20;;;;;;5095944;28;20123;-81
2021/08/04 07:18:09;;;;;;;0.40;0.40;;;16.30;80.20;;;;;;5126142;28;20048;-83
2021/08/04 07:20:37;;;;;;;0.65;0.60;;;16.40;80.30;;;;;;5095745;28;20011;-81
2021/08/04 07:23:05;;;;;;;0.60;0.50;;;16.50;80.10;;;;;;5097731;28;20039;-81
2021/08/04 07:25:34;;;;;;;0.50;0.50;;;16.70;80.10;;;;;;5134432;28;20027;-81
2021/08/04 07:28:04;;;;;;;0.60;0.60;;;16.70;79.90;;;;;;5054204;28;20037;-81
2021/08/04 07:30:30;;;;;;;0.60;0.60;;;16.90;79.90;;;;;;5038002;28;20139;-80
2021/08/04 07:32:56;;;;;;;1.08;0.80;;;17.00;79.60;;;;;;5076269;28;20052;-79
2021/08/04 07:35:22;;;;;;;0.80;0.50;;;17.10;79.40;;;;;;5088269;28;20036;-79
2021/08/04 07:37:48;;;;;;;0.70;0.70;;;17.20;79.30;;;;;;5050254;28;20071;-78
2021/08/04 07:40:16;;;;;;;1.05;0.70;;;17.30;79.20;;;;;;5058621;28;20045;-80
2021/08/04 07:42:42;;;;;;;0.50;0.50;;;17.40;79.10;;;;;;5040219;28;20048;-81
2021/08/04 07:45:09;;;;;;;0.95;0.55;;;17.50;79.10;;;;;;5060630;28;20048;-79
2021/08/04 07:47:34;;;;;;;0.55;0.50;;;17.60;78.80;;;;;;5030140;28;20040;-80
2021/08/04 07:50:00;;;;;;;0.70;0.70;;;17.70;78.80;;;;;;5085635;28;20047;-78
2021/08/04 07:52:26;;;;;;;1.25;0.60;;;17.90;78.70;;;;;;5046441;28;20063;-82
2021/08/04 07:54:51;;;;;;;0.63;0.63;;;18.00;78.50;;;;;;5065179;28;20135;-77
2021/08/04 07:57:17;;;;;;;0.75;0.70;;;18.10;78.90;;;;;;5056906;28;20110;-80
2021/08/04 07:59:43;;;;;;;0.70;0.63;;;18.30;78.20;;;;;;5113156;28;20040;-81
2021/08/04 08:02:12;;;;;;;0.75;0.73;;;18.40;78.10;;;;;;5080427;28;20091;-85
2021/08/04 08:05:17;;;;;;;0.55;0.52;;;18.50;78.10;;;;;;5099519;28;20048;-84
2021/08/04 08:07:45;;;;;;;0.57;0.57;;;18.70;77.90;;;;;;5034127;28;20072;-79
2021/08/04 08:10:11;;;;;;;0.40;0.40;;;18.80;77.70;;;;;;5023254;28;20044;-79
2021/08/04 08:12:37;;;;;;;1.20;0.70;;;18.90;77.50;;;;;;5037730;28;20052;-79
2021/08/04 08:15:06;;;;;;;0.50;0.50;;;19.20;77.40;;;;;;5042665;28;20036;-82
2021/08/04 08:17:31;;;;;;;0.68;0.68;;;19.30;77.10;;;;;;5024445;28;20052;-82
2021/08/04 08:20:16;;;;;;;0.60;0.60;;;19.50;77.00;;;;;;5019536;28;20036;-82
2021/08/04 08:22:41;;;;;;;0.50;0.50;;;19.70;76.90;;;;;;5001043;28;20232;-81
2021/08/04 08:25:11;;;;;;;0.50;0.50;;;19.80;76.60;;;;;;5001805;28;20045;-80
2021/08/04 08:27:38;;;;;;;0.43;0.40;;;19.90;76.60;;;;;;5023267;28;20407;-81
2021/08/04 08:30:05;;;;;;;0.60;0.57;;;20.00;76.70;;;;;;5006706;28;20042;-80
2021/08/04 08:32:30;;;;;;;0.50;0.50;;;20.00;76.70;;;;;;5054119;28;20126;-80
2021/08/04 08:34:56;;;;;;;0.80;0.73;;;20.20;76.60;;;;;;5059913;28;20040;-79
2021/08/04 08:37:22;;;;;;;0.50;0.50;;;20.50;76.50;;;;;;5057082;28;20051;-77
2021/08/04 08:39:48;;;;;;;0.50;0.50;;;20.60;76.10;;;;;;5048428;28;20044;-79
2021/08/04 08:42:19;;;;;;;0.60;0.50;;;20.80;75.90;;;;;;5082318;28;20096;-78
2021/08/04 08:44:45;;;;;;;1.02;0.70;;;20.90;75.80;;;;;;5082465;28;20043;-81
2021/08/04 08:47:11;;;;;;;0.90;0.70;;;21.00;75.60;;;;;;5052389;28;20044;-78
2021/08/04 08:49:38;;;;;;;1.13;0.90;;;21.10;75.50;;;;;;5055524;28;20060;-79
2021/08/04 08:52:04;;;;;;;1.17;0.80;;;21.20;75.00;;;;;;5059376;28;20051;-80
2021/08/04 08:54:30;;;;;;;0.60;0.60;;;21.30;75.00;;;;;;5116932;28;20043;-79
2021/08/04 08:56:56;;;;;;;0.57;0.52;;;21.40;74.90;;;;;;5100381;28;20119;-80
2021/08/04 08:59:21;;;;;;;0.63;0.63;;;21.30;75.10;;;;;;5084753;28;20456;-81
2021/08/04 09:01:49;;;;;;;0.52;0.50;;;21.40;75.00;;;;;;5087370;28;20107;-81
2021/08/04 09:04:16;;;;;;;0.45;0.45;;;21.60;74.70;;;;;;5078064;28;20043;-83
2021/08/04 09:06:46;;;;;;;0.55;0.55;;;21.70;74.30;;;;;;5085968;28;20046;-80
2021/08/04 09:09:14;;;;;;;0.52;0.52;;;21.90;74.10;;;;;;5100854;28;20070;-80
2021/08/04 09:11:40;;;;;;;0.80;0.80;;;22.10;73.90;;;;;;5098039;28;20039;-79
2021/08/04 09:14:06;;;;;;;0.40;0.40;;;22.20;73.60;;;;;;5080555;28;20044;-78
2021/08/04 09:16:33;;;;;;;0.40;0.40;;;22.30;73.40;;;;;;5094853;28;20446;-78
2021/08/04 09:18:59;;;;;;;0.65;0.60;;;22.50;73.30;;;;;;5077583;28;20051;-78
2021/08/04 09:21:25;;;;;;;0.60;0.60;;;22.60;73.60;;;;;;5094035;28;20035;-79
2021/08/04 09:23:54;;;;;;;0.95;0.60;;;22.60;72.70;;;;;;5060384;28;20085;-79
2021/08/04 09:26:22;;;;;;;1.10;0.68;;;22.70;72.60;;;;;;5094841;28;20043;-81
2021/08/04 09:28:57;;;;;;;0.50;0.50;;;22.70;72.60;;;;;;5066283;28;20035;-79
2021/08/04 09:31:51;;;;;;;0.55;0.50;;;22.80;72.60;;;;;;5086371;28;20914;-79
2021/08/04 09:34:37;;;;;;;0.50;0.50;;;22.80;72.50;;;;;;5096121;28;20485;-81
2021/08/04 09:37:12;;;;;;;0.65;0.40;;;22.90;72.40;;;;;;5094914;28;20482;-80
2021/08/04 09:39:41;;;;;;;0.32;0.32;;;22.80;72.20;;;;;;5114838;28;20065;-82
2021/08/04 09:42:09;;;;;;;0.82;0.70;;;22.90;72.30;;;;;;5097818;28;20437;-79
2021/08/04 09:44:34;;;;;;;0.75;0.43;;;23.00;72.20;;;;;;5097374;28;20117;-79
2021/08/04 09:47:17;;;;;;;0.50;0.50;;;23.00;72.20;;;;;;5101058;28;20459;-79
2021/08/04 09:49:55;;;;;;;0.50;0.50;;;23.20;71.80;;;;;;5118588;28;20043;-77
2021/08/04 09:52:21;;;;;;;0.57;0.50;;;23.30;71.60;;;;;;5130139;28;20126;-78
2021/08/04 09:54:47;;;;;;;0.80;0.50;;;23.30;71.30;;;;;;5109124;28;20042;-78
2021/08/04 09:57:13;;;;;;;0.70;0.70;;;23.30;71.30;;;;;;5115808;28;20085;-78
2021/08/04 09:59:39;;;;;;;0.82;0.60;;;23.20;71.20;;;;;;5129980;28;20040;-78
2021/08/04 10:02:25;;;;;;;0.55;0.55;;;23.30;71.00;;;;;;5109752;28;20043;-79
2021/08/04 10:05:19;;;;;;;0.60;0.60;;;23.40;70.80;;;;;;5135029;28;20030;-79
2021/08/04 10:08:03;;;;;;;0.43;0.43;;;23.40;70.20;;;;;;5091444;28;20046;-80
2021/08/04 10:10:33;;;;;;;0.50;0.50;;;23.50;70.20;;;;;;5131723;28;20124;-79
2021/08/04 10:13:02;;;;;;;0.50;0.50;;;23.50;70.30;;;;;;5092576;28;20036;-78
2021/08/04 10:15:30;;;;;;;0.60;0.60;;;23.70;70.00;;;;;;5108637;28;20103;-80
2021/08/04 10:17:57;;;;;;;0.68;0.68;;;23.70;69.60;;;;;;5104384;28;20160;-78
2021/08/04 10:20:24;;;;;;;0.50;0.50;;;23.70;69.60;;;;;;5101443;28;20128;-78
2021/08/04 10:22:50;;;;;;;0.60;0.55;;;23.50;69.60;;;;;;5120408;28;20576;-78
2021/08/04 10:25:18;;;;;;;0.50;0.50;;;23.50;69.80;;;;;;5118584;28;20481;-77
2021/08/04 10:27:45;;;;;;;0.77;0.60;;;23.50;69.90;;;;;;5098362;28;20051;-79
2021/08/04 10:30:11;;;;;;;0.50;0.50;;;23.50;69.90;;;;;;5097270;28;20091;-78
2021/08/04 10:32:38;;;;;;;0.57;0.57;;;23.70;69.60;;;;;;5066752;28;20039;-77
2021/08/04 10:35:04;;;;;;;0.60;0.60;;;23.80;69.10;;;;;;5064072;28;20077;-78
2021/08/04 10:37:32;;;;;;;0.60;0.60;;;23.90;68.80;;;;;;5097244;28;20515;-78
2021/08/04 10:39:59;;;;;;;0.43;0.43;;;24.00;68.60;;;;;;5104021;28;20093;-78
2021/08/04 10:42:37;;;;;;;0.57;0.57;;;24.00;68.50;;;;;;5086218;28;20519;-78
2021/08/04 10:45:32;;;;;;;0.60;0.60;;;24.00;68.00;;;;;;5099032;28;20040;-79
2021/08/04 10:48:18;;;;;;;0.85;0.68;;;24.00;68.00;;;;;;5113637;28;20043;-78
2021/08/04 10:51:20;;;;;;;0.60;0.60;;;24.10;68.00;;;;;;5118124;28;20039;-78
2021/08/04 10:54:14;;;;;;;0.32;0.32;;;24.10;67.90;;;;;;5119669;28;20036;-78
2021/08/04 10:57:06;;;;;;;0.60;0.52;;;24.10;67.80;;;;;;5102058;28;20031;-79
2021/08/04 10:59:33;;;;;;;0.60;0.60;;;24.10;67.80;;;;;;5067705;28;20044;-78
2021/08/04 11:02:30;;;;;;;0.70;0.70;;;24.10;67.80;;;;;;5100268;28;20098;-79
2021/08/04 11:04:56;;;;;;;0.52;0.52;;;24.20;67.30;;;;;;5100325;28;20084;-78
2021/08/04 11:07:24;;;;;;;1.20;0.52;;;24.20;67.50;;;;;;5118178;28;20046;-78
2021/08/04 11:09:56;;;;;;;0.60;0.50;;;24.20;67.50;;;;;;5115748;28;20032;-79
2021/08/04 11:12:42;;;;;;;0.75;0.68;;;24.40;67.10;;;;;;5103894;28;20050;-78
2021/08/04 11:18:59;;;;;;;0.50;0.50;;;24.30;66.90;;;;;;5008335;28;20046;-83
2021/08/04 11:21:28;;;;;;;0.50;0.50;;;24.00;67.50;;;;;;5017006;28;20034;-81
2021/08/04 11:23:54;;;;;;;0.70;0.50;;;23.80;67.80;;;;;;4979558;28;20034;-81
2021/08/04 11:30:35;;;;;;;1.58;0.68;;;23.70;68.20;;;;;;4972009;28;20062;-82
2021/08/04 11:33:25;;;;;;;0.45;0.45;;;23.70;68.20;;;;;;4918102;29;20046;-80
2021/08/04 11:36:25;;;;;;;0.60;0.43;;;23.80;67.80;;;;;;4933237;29;20035;-81
2021/08/04 11:39:02;;;;;;;0.60;0.60;;;24.10;67.40;;;;;;4917048;29;20078;-82
2021/08/04 11:41:46;;;;;;;0.30;0.30;;;24.20;66.70;;;;;;4898136;29;20044;-85
2021/08/04 11:44:18;;;;;;;0.93;0.57;;;24.10;66.70;;;;;;4918820;29;20055;-82
2021/08/04 11:46:46;;;;;;;0.52;0.47;;;24.30;66.50;;;;;;4933883;29;20042;-80
2021/08/04 11:49:15;;;;;;;0.77;0.60;;;24.40;66.20;;;;;;4917990;29;20394;-79
2021/08/04 11:51:51;;;;;;;0.47;0.47;;;24.10;66.20;;;;;;4932603;29;20052;-85
2021/08/04 11:54:30;;;;;;;0.52;0.52;;;24.10;66.60;;;;;;4918909;29;20036;-79
2021/08/04 11:56:55;;;;;;;0.73;0.73;;;24.10;66.70;;;;;;5012421;28;20037;-79
2021/08/04 11:59:21;;;;;;;0.55;0.55;;;24.10;66.70;;;;;;4982753;28;20154;-79
2021/08/04 12:02:42;;;;;;;0.57;0.47;;;24.30;66.50;;;;;;5071302;28;20072;-82
2021/08/04 12:05:09;;;;;;;0.55;0.55;;;24.40;66.00;;;;;;4970873;28;20043;-82
2021/08/04 12:07:42;;;;;;;0.40;0.40;;;24.40;65.70;;;;;;4952913;28;20038;-83
2021/08/04 12:10:12;;;;;;;0.52;0.50;;;24.40;65.70;;;;;;4956009;28;20595;-81
2021/08/04 12:12:41;;;;;;;0.40;0.40;;;24.30;65.90;;;;;;4972440;28;20631;-80
2021/08/04 12:15:28;;;;;;;0.30;0.30;;;24.20;66.20;;;;;;4955755;28;20053;-81
2021/08/04 12:18:11;;;;;;;1.15;0.60;;;24.30;66.10;;;;;;4958925;28;20093;-92
2021/08/04 12:20:37;;;;;;;0.75;0.70;;;24.40;65.70;;;;;;4913978;29;20172;-82
2021/08/04 12:23:18;;;;;;;0.70;0.65;;;24.30;65.50;;;;;;4933753;29;20071;-87
2021/08/04 12:25:44;;;;;;;0.60;0.60;;;23.90;66.00;;;;;;4933746;29;20052;-85
2021/08/04 12:28:10;;;;;;;0.60;0.60;;;23.70;66.50;;;;;;4917981;29;20508;-83
2021/08/04 12:30:40;;;;;;;2.45;0.70;;;23.60;66.90;;;;;;4951483;28;20042;-83
2021/08/04 12:33:13;;;;;;;0.47;0.47;;;23.50;67.10;;;;;;4955913;28;20050;-83
2021/08/04 12:36:09;;;;;;;1.00;0.88;;;23.50;67.20;;;;;;4955508;28;20043;-84
2021/08/04 12:38:38;;;;;;;0.60;0.60;;;23.40;66.90;;;;;;4952646;28;20062;-83
2021/08/04 12:41:09;;;;;;;0.60;0.60;;;23.20;67.30;;;;;;4978773;28;20037;-86
2021/08/04 12:43:37;;;;;;;0.50;0.50;;;23.30;67.30;;;;;;4960236;28;20042;-83
2021/08/04 12:46:04;;;;;;;0.47;0.47;;;23.50;66.80;;;;;;4990996;28;20042;-80
2021/08/04 12:48:38;;;;;;;0.60;0.60;;;23.70;66.30;;;;;;4975340;28;20042;-79
2021/08/04 12:51:15;;;;;;;0.65;0.65;;;23.80;65.80;;;;;;4986665;28;20053;-81
2021/08/04 12:53:45;;;;;;;1.17;0.80;;;23.90;65.10;;;;;;5014423;28;20095;-82
2021/08/04 12:56:15;;;;;;;0.90;0.80;;;23.90;65.00;;;;;;5013400;28;20038;-80
2021/08/04 12:59:02;;;;;;;0.70;0.70;;;23.80;64.90;;;;;;5030057;28;20049;-79
2021/08/04 13:01:34;;;;;;;0.73;0.57;;;23.90;64.80;;;;;;5013632;28;20132;-84
2021/08/04 13:04:49;;;;;;;0.60;0.60;;;24.00;64.60;;;;;;5030228;28;20072;-86
2021/08/04 13:07:15;;;;;;;0.60;0.60;;;24.00;64.60;;;;;;4994288;28;20038;-83
2021/08/04 13:09:50;;;;;;;0.70;0.70;;;24.00;64.20;;;;;;5021066;28;20057;-85
2021/08/04 13:12:29;;;;;;;0.65;0.50;;;24.00;64.20;;;;;;4999083;28;20046;-83
2021/08/04 13:15:12;;;;;;;0.50;0.50;;;24.10;64.30;;;;;;4984307;28;20136;-81
2021/08/04 13:17:58;;;;;;;0.52;0.52;;;24.10;64.00;;;;;;4961004;28;20079;-87
2021/08/04 13:21:06;;;;;;;0.60;0.60;;;24.00;64.10;;;;;;4978023;28;20081;-86
2021/08/04 13:23:35;;;;;;;0.50;0.50;;;24.10;64.30;;;;;;4958527;28;20490;-88
2021/08/04 13:30:11;;;;;;;0.50;0.50;;;24.20;64.20;;;;;;4936186;29;20119;-87
2021/08/04 13:32:37;;;;;;;1.02;0.70;;;24.00;64.40;;;;;;4933225;29;20134;-88
2021/08/04 13:35:03;;;;;;;0.35;0.35;;;23.90;64.70;;;;;;4975130;28;20466;-85
2021/08/04 13:37:28;;;;;;;0.40;0.40;;;23.80;65.40;;;;;;4957738;28;20439;-82
2021/08/04 13:43:56;;;;;;;0.50;0.50;;;23.80;64.90;;;;;;4901234;29;20076;-84
2021/08/04 13:46:21;;;;;;;0.40;0.40;;;23.70;65.00;;;;;;4885353;29;20488;-85
2021/08/04 13:48:47;;;;;;;0.47;0.47;;;23.70;65.00;;;;;;4875249;29;20072;-83
2021/08/04 13:51:13;;;;;;;0.50;0.50;;;23.70;65.10;;;;;;4900218;29;20049;-84
2021/08/04 13:53:39;;;;;;;0.50;0.50;;;23.70;65.20;;;;;;4899178;29;20567;-83
2021/08/04 13:56:04;;;;;;;0.40;0.40;;;23.70;65.10;;;;;;4885365;29;20052;-83
2021/08/04 13:58:33;;;;;;;0.65;0.65;;;23.80;65.00;;;;;;4886432;29;20040;-83
2021/08/04 14:00:59;;;;;;;0.60;0.60;;;23.80;64.50;;;;;;4946533;28;20028;-82
2021/08/04 14:03:24;;;;;;;0.63;0.63;;;23.70;64.40;;;;;;4964540;28;20055;-80
2021/08/04 14:05:50;;;;;;;0.65;0.65;;;23.60;64.30;;;;;;4943982;28;20043;-82
2021/08/04 14:08:16;;;;;;;0.70;0.70;;;23.60;64.30;;;;;;4939933;28;20481;-84
2021/08/04 14:10:43;;;;;;;0.70;0.70;;;23.50;64.40;;;;;;4939427;28;20066;-86
2021/08/04 14:13:09;;;;;;;0.90;0.80;;;23.40;64.30;;;;;;4923507;28;20047;-82
2021/08/04 14:15:51;;;;;;;0.60;0.60;;;23.30;64.50;;;;;;4939995;28;20050;-93
2021/08/04 14:18:53;;;;;;;0.70;0.70;;;23.30;64.60;;;;;;4953873;28;20042;-83
2021/08/04 14:21:19;;;;;;;0.63;0.63;;;23.20;64.60;;;;;;5050584;28;20054;-82
2021/08/04 14:23:56;;;;;;;0.80;0.80;;;23.20;64.60;;;;;;5073957;28;20048;-82
2021/08/04 14:26:25;;;;;;;0.50;0.50;;;23.20;64.50;;;;;;5098365;28;20066;-84
2021/08/04 14:28:51;;;;;;;0.60;0.60;;;23.40;64.20;;;;;;5083002;28;20564;-82
2021/08/04 14:31:22;;;;;;;0.90;0.70;;;23.50;63.90;;;;;;5099710;28;20063;-83
2021/08/04 14:33:48;;;;;;;0.50;0.50;;;23.60;63.50;;;;;;5087345;28;20020;-80
2021/08/04 14:36:14;;;;;;;0.60;0.60;;;23.60;63.20;;;;;;5095829;28;20117;-79
2021/08/04 14:38:39;;;;;;;0.60;0.60;;;23.70;63.00;;;;;;5131331;28;20043;-81
2021/08/04 14:41:05;;;;;;;0.60;0.60;;;23.80;62.90;;;;;;5106206;28;20541;-81
2021/08/04 14:43:31;;;;;;;1.08;0.60;;;23.80;62.70;;;;;;5106405;28;20073;-83
2021/08/04 14:46:03;;;;;;;0.80;0.80;;;23.90;62.70;;;;;;5069871;28;20043;-86
2021/08/04 14:48:28;;;;;;;0.60;0.60;;;23.90;62.40;;;;;;5103819;28;20068;-81
2021/08/04 14:50:54;;;;;;;0.70;0.70;;;23.70;62.60;;;;;;5122086;28;20044;-83
2021/08/04 14:53:20;;;;;;;0.52;0.52;;;23.60;63.00;;;;;;5117639;28;20062;-80
2021/08/04 14:55:47;;;;;;;0.68;0.68;;;23.50;63.10;;;;;;5096961;28;20465;-84
2021/08/04 14:58:14;;;;;;;0.35;0.35;;;23.50;63.10;;;;;;5055442;28;20402;-83
2021/08/04 15:01:08;;;;;;;0.55;0.50;;;23.50;63.00;;;;;;5056727;28;20044;-86
2021/08/04 15:03:33;;;;;;;0.68;0.68;;;23.60;62.80;;;;;;5023512;28;20093;-82
2021/08/04 15:06:34;;;;;;;0.70;0.70;;;23.50;62.60;;;;;;5074541;28;20511;-87
2021/08/04 15:09:02;;;;;;;0.47;0.47;;;23.60;62.70;;;;;;5027994;28;20014;-81
2021/08/04 15:11:38;;;;;;;0.60;0.60;;;23.70;62.70;;;;;;5024825;28;20049;-85
2021/08/04 15:14:05;;;;;;;0.45;0.45;;;23.60;62.70;;;;;;4963758;28;20046;-82
2021/08/04 15:16:34;;;;;;;0.52;0.50;;;23.50;62.90;;;;;;4933982;28;20034;-82
2021/08/04 15:19:00;;;;;;;0.50;0.50;;;23.50;63.20;;;;;;4963373;28;20073;-82
2021/08/04 15:21:26;;;;;;;0.68;0.68;;;23.50;63.40;;;;;;4969319;28;20059;-82
2021/08/04 15:23:52;;;;;;;0.50;0.50;;;23.40;63.50;;;;;;4950116;28;20086;-82
2021/08/04 15:26:18;;;;;;;0.70;0.70;;;23.40;63.60;;;;;;4963824;29;20039;-79
2021/08/04 15:28:46;;;;;;;0.60;0.50;;;23.40;63.40;;;;;;4960452;28;20480;-79
2021/08/04 15:31:12;;;;;;;0.60;0.60;;;23.50;63.20;;;;;;4937461;29;20039;-80
2021/08/04 15:33:40;;;;;;;0.77;0.52;;;23.60;62.90;;;;;;4945289;28;20502;-79
2021/08/04 15:42:33;;;;;;;0.60;0.60;;;23.80;62.30;;;;;;5013350;28;20088;-80
2021/08/04 15:44:59;;;;;;;1.70;0.65;;;23.70;62.30;;;;;;5015891;28;20050;-81
2021/08/04 15:47:25;;;;;;;0.50;0.50;;;23.70;62.40;;;;;;4997343;28;20562;-81
2021/08/04 15:49:50;;;;;;;0.50;0.50;;;23.60;62.60;;;;;;5014957;28;20113;-82
2021/08/04 15:52:16;;;;;;;0.65;0.65;;;23.50;62.70;;;;;;4988086;28;20439;-80
2021/08/04 15:54:50;;;;;;;0.60;0.60;;;23.50;62.90;;;;;;5013304;28;20041;-86
2021/08/04 15:57:16;;;;;;;0.68;0.68;;;23.40;63.10;;;;;;5003484;28;20078;-85
2021/08/04 15:59:42;;;;;;;0.55;0.55;;;23.30;63.20;;;;;;4966710;28;20038;-83
2021/08/04 16:02:13;;;;;;;0.77;0.60;;;23.20;63.50;;;;;;5031902;28;20060;-87
2021/08/04 16:04:39;;;;;;;0.50;0.50;;;23.00;63.70;;;;;;5036905;28;20041;-84
2021/08/04 16:07:49;;;;;;;0.57;0.57;;;23.00;64.10;;;;;;5018083;28;20049;-84
2021/08/04 16:16:24;;;;;;;0.50;0.50;;;23.10;63.80;;;;;;4912791;29;20657;-83
2021/08/04 16:18:52;;;;;;;0.80;0.80;;;23.10;63.50;;;;;;4904353;29;20611;-84
2021/08/04 16:21:24;;;;;;;0.38;0.38;;;23.10;63.30;;;;;;4930649;29;20047;-82
2021/08/04 16:23:51;;;;;;;0.30;0.30;;;23.20;63.20;;;;;;4960178;29;20054;-82
2021/08/04 16:26:17;;;;;;;0.60;0.60;;;23.20;63.00;;;;;;4943506;29;20051;-82
2021/08/04 16:28:43;;;;;;;0.50;0.50;;;23.30;63.00;;;;;;4931573;29;20478;-83
2021/08/04 16:31:11;;;;;;;0.60;0.60;;;23.30;63.00;;;;;;4936398;29;20043;-85
2021/08/04 16:33:38;;;;;;;0.40;0.40;;;23.30;62.90;;;;;;4927323;29;20044;-83
2021/08/04 16:36:04;;;;;;;0.68;0.60;;;23.20;62.80;;;;;;4952611;29;20073;-85
2021/08/04 16:38:34;;;;;;;0.82;0.60;;;23.30;62.80;;;;;;4955144;28;20042;-86
2021/08/04 16:41:00;;;;;;;0.47;0.47;;;23.30;62.80;;;;;;4946163;28;20072;-85
2021/08/04 16:43:26;;;;;;;0.60;0.57;;;23.30;62.80;;;;;;4978382;28;20101;-83
2021/08/04 16:45:52;;;;;;;0.50;0.50;;;23.30;62.80;;;;;;4997684;28;20046;-83
2021/08/04 16:48:17;;;;;;;0.73;0.60;;;23.20;62.80;;;;;;5030154;28;20068;-84
2021/08/04 16:50:43;;;;;;;0.50;0.50;;;23.20;62.90;;;;;;5027500;28;20045;-82
2021/08/04 16:53:09;;;;;;;0.70;0.55;;;23.20;63.00;;;;;;5069826;28;20074;-83
2021/08/04 16:55:36;;;;;;;0.60;0.60;;;23.20;63.00;;;;;;5112559;28;20050;-83
2021/08/04 16:58:07;;;;;;;0.60;0.60;;;23.20;63.00;;;;;;5112696;28;20115;-83
2021/08/04 17:00:32;;;;;;;0.60;0.57;;;23.20;62.90;;;;;;5113025;28;20040;-82
2021/08/04 17:02:58;;;;;;;0.57;0.57;;;23.10;62.90;;;;;;5094319;28;20618;-83
2021/08/04 17:05:24;;;;;;;0.60;0.60;;;23.10;62.90;;;;;;5060679;28;20112;-83
2021/08/04 17:07:51;;;;;;;0.60;0.60;;;23.10;62.90;;;;;;5060809;28;20040;-83
2021/08/04 17:10:17;;;;;;;0.45;0.45;;;23.10;62.90;;;;;;5078951;28;20511;-83
2021/08/04 17:12:42;;;;;;;0.50;0.50;;;23.10;62.90;;;;;;5094908;28;20071;-84
2021/08/04 17:15:10;;;;;;;0.50;0.50;;;23.10;62.90;;;;;;5060832;28;20122;-83
2021/08/04 17:17:37;;;;;;;0.32;0.32;;;23.10;62.80;;;;;;5094449;28;20496;-81
2021/08/04 17:20:05;;;;;;;0.63;0.55;;;23.10;62.80;;;;;;5094477;28;20047;-84
2021/08/04 17:22:30;;;;;;;0.50;0.50;;;23.10;62.90;;;;;;5112585;28;20032;-86
2021/08/04 17:24:56;;;;;;;0.50;0.50;;;23.10;62.90;;;;;;5094230;28;20035;-85
2021/08/04 17:27:55;;;;;;;0.47;0.47;;;23.10;63.00;;;;;;5077410;28;20066;-86
2021/08/04 17:30:21;;;;;;;0.50;0.40;;;23.00;62.90;;;;;;5093594;28;20054;-86
2021/08/04 17:32:53;;;;;;;0.60;0.60;;;23.00;62.90;;;;;;5079024;28;20044;-85
2021/08/04 17:35:19;;;;;;;0.50;0.50;;;22.90;63.00;;;;;;5096506;28;20465;-84
2021/08/04 17:37:46;;;;;;;0.50;0.50;;;22.80;63.10;;;;;;5074015;28;20528;-83
2021/08/04 17:40:12;;;;;;;0.55;0.55;;;22.80;63.30;;;;;;5081458;28;20039;-81
2021/08/04 17:42:38;;;;;;;0.43;0.43;;;22.70;63.40;;;;;;5100246;28;20434;-81
2021/08/04 17:45:05;;;;;;;0.40;0.40;;;22.70;63.40;;;;;;5102125;28;20039;-81
2021/08/04 17:47:30;;;;;;;0.55;0.55;;;22.70;63.50;;;;;;5101770;28;20078;-81
2021/08/04 17:49:56;;;;;;;0.45;0.45;;;22.60;63.60;;;;;;5095018;28;20047;-79
2021/08/04 17:52:22;;;;;;;0.47;0.47;;;22.50;63.80;;;;;;5093736;28;20153;-78
2021/08/04 17:54:47;;;;;;;0.55;0.55;;;22.40;64.00;;;;;;5112030;28;20039;-79
2021/08/04 17:57:13;;;;;;;0.57;0.57;;;22.30;64.10;;;;;;5077637;28;20512;-79
2021/08/04 17:59:39;;;;;;;0.50;0.40;;;22.30;64.20;;;;;;5115437;28;20130;-80
2021/08/04 18:02:05;;;;;;;0.50;0.50;;;22.20;64.30;;;;;;5097202;28;20047;-79
2021/08/04 18:04:30;;;;;;;0.50;0.50;;;22.20;64.50;;;;;;5115395;28;20040;-79
2021/08/04 18:06:56;;;;;;;0.40;0.40;;;22.10;64.60;;;;;;5097619;28;20047;-79
2021/08/04 18:09:22;;;;;;;0.50;0.50;;;22.00;65.30;;;;;;5115103;28;20043;-79
2021/08/04 18:11:48;;;;;;;0.55;0.55;;;21.90;64.80;;;;;;5080222;28;20036;-79
2021/08/04 18:14:14;;;;;;;0.38;0.38;;;21.90;64.90;;;;;;5097573;28;20040;-80
2021/08/04 18:16:44;;;;;;;0.68;0.60;;;21.80;65.00;;;;;;5116401;28;20159;-81
2021/08/04 18:19:10;;;;;;;0.30;0.30;;;21.70;65.20;;;;;;5118610;28;20028;-82
2021/08/04 18:21:35;;;;;;;0.50;0.40;;;21.70;65.30;;;;;;5087717;28;20421;-81
2021/08/04 18:24:01;;;;;;;0.47;0.40;;;21.60;65.40;;;;;;5121549;28;20043;-82
2021/08/04 18:26:28;;;;;;;0.50;0.50;;;21.50;65.50;;;;;;5136250;28;20598;-80
2021/08/04 18:28:54;;;;;;;0.52;0.52;;;21.50;65.60;;;;;;5119663;28;20027;-81
2021/08/04 18:31:20;;;;;;;0.43;0.40;;;21.40;65.60;;;;;;5097402;28;20087;-80
2021/08/04 18:33:45;;;;;;;0.60;0.43;;;21.40;65.60;;;;;;5117118;28;20015;-81
2021/08/04 18:36:11;;;;;;;0.38;0.38;;;21.40;65.70;;;;;;5101721;28;20060;-82
2021/08/04 18:38:37;;;;;;;0.30;0.30;;;21.40;65.80;;;;;;5082334;28;20040;-81
2021/08/04 18:41:03;;;;;;;0.40;0.40;;;21.30;65.90;;;;;;5116832;28;20065;-81
2021/08/04 18:43:29;;;;;;;0.30;0.30;;;21.30;66.00;;;;;;5102367;28;20047;-82
2021/08/04 18:45:55;;;;;;;0.40;0.40;;;21.20;66.20;;;;;;5116562;28;20409;-81
2021/08/04 18:48:21;;;;;;;0.32;0.32;;;21.10;66.20;;;;;;5121887;28;20087;-81
2021/08/04 18:50:46;;;;;;;0.50;0.50;;;21.00;66.30;;;;;;5139375;28;20470;-81
2021/08/04 18:53:12;;;;;;;0.50;0.50;;;21.10;66.50;;;;;;5119791;28;20052;-81
2021/08/04 18:55:38;;;;;;;0.45;0.45;;;20.90;66.50;;;;;;5138837;28;20028;-82
2021/08/04 18:58:05;;;;;;;0.45;0.45;;;20.90;66.60;;;;;;5099054;28;20047;-83
2021/08/04 19:00:30;;;;;;;0.40;0.40;;;20.80;66.60;;;;;;5079782;28;20513;-84
2021/08/04 19:02:59;;;;;;;0.85;0.50;;;20.90;66.70;;;;;;5096125;28;20073;-80
2021/08/04 19:05:28;;;;;;;0.40;0.40;;;20.80;66.80;;;;;;5114289;28;20050;-81